Aviation Digital Data Service (ADDS)

Output produced by METARs form (0344 UTC 23 November 2017)
found at http://www.aviationweather.gov/adds/metars/
 
TLPC 222300Z 2300/2324 11005KT 9999 SCT024 
     TEMPO 2300/2318 SHRA BKN017
       
TLPL 222300Z 2300/2324 10012KT 9999 SCT024 
     TEMPO 2300/2318 SHRA BKN017